Time;durP1;ratioP1;P1;durP2;ratioP2;P2;SDS_P1;SDS_P2;PMS_P1;PMS_P2;Temp;Humidity;BMP_temperature;BMP_pressure;BME280_temperature;BME280_humidity;BME280_pressure;Samples;Min_cycle;Max_cycle;Signal;HPM_P1;HPM_P2
2021/07/12 00:00:08;;;;;;;;;;;;;;;;;;2147529;66;1176;-72
2021/07/12 00:02:33;;;;;;;;;;;;;;;;;;2147166;66;1319;-71
2021/07/12 00:04:58;;;;;;;;;;;;;;;;;;2147310;66;1208;-71
2021/07/12 00:07:23;;;;;;;;;;;;;;;;;;2147996;66;1203;-71
2021/07/12 00:09:49;;;;;;;;;;;;;;;;;;2146777;66;1143;-71
2021/07/12 00:12:14;;;;;;;;;;;;;;;;;;2147379;59;1276;-72
2021/07/12 00:14:39;;;;;;;;;;;;;;;;;;2146859;66;1380;-72
2021/07/12 00:17:04;;;;;;;;;;;;;;;;;;2146875;59;1933;-72
2021/07/12 00:19:30;;;;;;;;;;;;;;;;;;2146737;66;1136;-72
2021/07/12 00:21:55;;;;;;;;;;;;;;;;;;2146655;66;1147;-72
2021/07/12 00:24:20;;;;;;;;;;;;;;;;;;2146686;59;1409;-72
2021/07/12 00:26:47;;;;;;;;;;;;;;;;;;2146588;66;1159;-71
2021/07/12 00:29:12;;;;;;;;;;;;;;;;;;2146826;66;1169;-72
2021/07/12 00:31:37;;;;;;;;;;;;;;;;;;2146407;59;1151;-70
2021/07/12 00:34:02;;;;;;;;;;;;;;;;;;2145178;66;1187;-71
2021/07/12 00:36:28;;;;;;;;;;;;;;;;;;2147248;66;1958;-71
2021/07/12 00:38:53;;;;;;;;;;;;;;;;;;2145798;66;1214;-70
2021/07/12 00:41:18;;;;;;;;;;;;;;;;;;2146263;66;1057;-71
2021/07/12 00:43:43;;;;;;;;;;;;;;;;;;2145987;66;1200;-71
2021/07/12 00:46:08;;;;;;;;;;;;;;;;;;2146284;66;1168;-71
2021/07/12 00:48:34;;;;;;;;;;;;;;;;;;2145513;66;1308;-71
2021/07/12 00:50:59;;;;;;;;;;;;;;;;;;2145032;66;1083;-70
2021/07/12 00:53:25;;;;;;;;;;;;;;;;;;2143492;58;1211;-72
2021/07/12 00:55:50;;;;;;;;;;;;;;;;;;2144705;66;1943;-71
2021/07/12 00:58:16;;;;;;;;;;;;;;;;;;2145397;66;1368;-72
2021/07/12 01:00:43;;;;;;;;;;;;;;;;;;2147020;66;1181;-72
2021/07/12 01:03:10;;;;;;;;;;;;;;;;;;2148066;66;1376;-71
2021/07/12 01:05:35;;;;;;;;;;;;;;;;;;2146495;66;1175;-71
2021/07/12 01:08:01;;;;;;;;;;;;;;;;;;2147073;59;1181;-70
2021/07/12 01:10:27;;;;;;;;;;;;;;;;;;2146815;66;1198;-71
2021/07/12 01:13:03;;;;;;;;;;;;;;;;;;2145247;59;1314;-71
2021/07/12 01:15:32;;;;;;;;;;;;;;;;;;2147100;59;1928;-71
2021/07/12 01:18:12;;;;;;;;;;;;;;;;;;2145869;66;1165;-72
2021/07/12 01:21:09;;;;;;;;;;;;;;;;;;2145218;66;1190;-71
2021/07/12 01:23:37;;;;;;;;;;;;;;;;;;2144622;59;1348;-70
2021/07/12 01:26:02;;;;;;;;;;;;;;;;;;2146795;66;1088;-70
2021/07/12 01:28:46;;;;;;;;;;;;;;;;;;2145685;66;1219;-71
2021/07/12 01:31:30;;;;;;;;;;;;;;;;;;2146878;66;1164;-70
2021/07/12 01:34:08;;;;;;;;;;;;;;;;;;2145033;66;1177;-70
2021/07/12 01:36:39;;;;;;;;;;;;;;;;;;2144803;66;1928;-71
2021/07/12 01:39:18;;;;;;;;;;;;;;;;;;2146872;66;1161;-72
2021/07/12 01:42:00;;;;;;;;;;;;;;;;;;2146342;66;1164;-72
2021/07/12 01:44:25;;;;;;;;;;;;;;;;;;2148155;66;1447;-72
2021/07/12 01:47:05;;;;;;;;;;;;;;;;;;2147667;66;1278;-71
2021/07/12 01:49:35;;;;;;;;;;;;;;;;;;2145846;66;1413;-71
2021/07/12 01:52:09;;;;;;;;;;;;;;;;;;2147544;66;1191;-72
2021/07/12 01:54:37;;;;;;;;;;;;;;;;;;2146617;58;2235;-71
2021/07/12 01:57:07;;;;;;;;;;;;;;;;;;2146238;58;1909;-71
2021/07/12 01:59:56;;;;;;;;;;;;;;;;;;2147001;58;1265;-71
2021/07/12 02:02:22;;;;;;;;;;;;;;;;;;2149452;66;1207;-71
2021/07/12 02:04:50;;;;;;;;;;;;;;;;;;2147914;66;1143;-72
2021/07/12 02:07:16;;;;;;;;;;;;;;;;;;2147353;66;1238;-71
2021/07/12 02:09:42;;;;;;;;;;;;;;;;;;2148606;66;1169;-72
2021/07/12 02:12:08;;;;;;;;;;;;;;;;;;2146318;58;1200;-72
2021/07/12 02:14:33;;;;;;;;;;;;;;;;;;2148496;66;1227;-70
2021/07/12 02:17:00;;;;;;;;;;;;;;;;;;2147248;58;1926;-71
2021/07/12 02:19:27;;;;;;;;;;;;;;;;;;2148500;66;1219;-72
2021/07/12 02:21:52;;;;;;;;;;;;;;;;;;2147441;66;1157;-72
2021/07/12 02:24:18;;;;;;;;;;;;;;;;;;2148475;58;1680;-71
2021/07/12 02:26:44;;;;;;;;;;;;;;;;;;2147604;66;1251;-71
2021/07/12 02:29:09;;;;;;;;;;;;;;;;;;2145941;58;1211;-71
2021/07/12 02:31:35;;;;;;;;;;;;;;;;;;2147857;66;1243;-72
2021/07/12 02:34:01;;;;;;;;;;;;;;;;;;2146843;66;1182;-71
2021/07/12 02:36:27;;;;;;;;;;;;;;;;;;2147029;66;1975;-70
2021/07/12 02:38:54;;;;;;;;;;;;;;;;;;2147301;66;1239;-71
2021/07/12 02:41:20;;;;;;;;;;;;;;;;;;2147205;66;1235;-72
2021/07/12 02:43:47;;;;;;;;;;;;;;;;;;2145793;66;1282;-71
2021/07/12 02:46:13;;;;;;;;;;;;;;;;;;2147035;66;1204;-72
2021/07/12 02:48:39;;;;;;;;;;;;;;;;;;2145935;58;1264;-72
2021/07/12 02:51:05;;;;;;;;;;;;;;;;;;2146256;66;1349;-71
2021/07/12 02:53:35;;;;;;;;;;;;;;;;;;2146860;59;1183;-71
2021/07/12 02:56:00;;;;;;;;;;;;;;;;;;2145020;66;1991;-71
2021/07/12 02:58:25;;;;;;;;;;;;;;;;;;2145228;66;1275;-71
2021/07/12 03:00:51;;;;;;;;;;;;;;;;;;2147099;66;1152;-71
2021/07/12 03:03:16;;;;;;;;;;;;;;;;;;2148230;66;1176;-71
2021/07/12 03:05:42;;;;;;;;;;;;;;;;;;2145076;66;1167;-71
2021/07/12 03:08:33;;;;;;;;;;;;;;;;;;2146770;66;1219;-71
2021/07/12 03:10:59;;;;;;;;;;;;;;;;;;2144434;66;1251;-71
2021/07/12 03:13:38;;;;;;;;;;;;;;;;;;2147297;59;1513;-71
2021/07/12 03:16:04;;;;;;;;;;;;;;;;;;2145127;66;1932;-71
2021/07/12 03:18:31;;;;;;;;;;;;;;;;;;2147141;66;1243;-71
2021/07/12 03:21:01;;;;;;;;;;;;;;;;;;2145743;66;1279;-71
2021/07/12 03:23:27;;;;;;;;;;;;;;;;;;2147144;59;1401;-70
2021/07/12 03:25:54;;;;;;;;;;;;;;;;;;2145495;66;1365;-70
2021/07/12 03:28:20;;;;;;;;;;;;;;;;;;2147047;66;1231;-72
2021/07/12 03:30:46;;;;;;;;;;;;;;;;;;2145536;66;1213;-70
2021/07/12 03:33:12;;;;;;;;;;;;;;;;;;2146773;66;1216;-71
2021/07/12 03:35:44;;;;;;;;;;;;;;;;;;2147484;66;1928;-72
2021/07/12 03:38:10;;;;;;;;;;;;;;;;;;2146418;66;1577;-71
2021/07/12 03:40:35;;;;;;;;;;;;;;;;;;2147449;66;1164;-70
2021/07/12 03:43:01;;;;;;;;;;;;;;;;;;2146327;66;1257;-71
2021/07/12 03:45:26;;;;;;;;;;;;;;;;;;2147812;66;1179;-71
2021/07/12 03:47:52;;;;;;;;;;;;;;;;;;2145549;59;1524;-72
2021/07/12 03:50:17;;;;;;;;;;;;;;;;;;2145818;66;1413;-71
2021/07/12 03:52:50;;;;;;;;;;;;;;;;;;2146416;58;1254;-71
2021/07/12 03:55:16;;;;;;;;;;;;;;;;;;2146504;66;1161;-71
2021/07/12 03:57:42;;;;;;;;;;;;;;;;;;2145622;66;1951;-71
2021/07/12 04:00:08;;;;;;;;;;;;;;;;;;2147366;66;1275;-71
2021/07/12 04:02:33;;;;;;;;;;;;;;;;;;2146420;66;1279;-70
2021/07/12 04:04:58;;;;;;;;;;;;;;;;;;2146281;66;1207;-71
2021/07/12 04:07:24;;;;;;;;;;;;;;;;;;2146747;66;1224;-70
2021/07/12 04:09:49;;;;;;;;;;;;;;;;;;2146587;66;1187;-72
2021/07/12 04:12:22;;;;;;;;;;;;;;;;;;2147206;59;1310;-71
2021/07/12 04:14:47;;;;;;;;;;;;;;;;;;2146616;66;1207;-70
2021/07/12 04:17:13;;;;;;;;;;;;;;;;;;2145612;59;1916;-71
2021/07/12 04:19:38;;;;;;;;;;;;;;;;;;2147179;66;1175;-70
2021/07/12 04:22:03;;;;;;;;;;;;;;;;;;2145322;66;1270;-71
2021/07/12 04:24:28;;;;;;;;;;;;;;;;;;2146821;59;1639;-71
2021/07/12 04:26:53;;;;;;;;;;;;;;;;;;2146911;66;1135;-72
2021/07/12 04:29:19;;;;;;;;;;;;;;;;;;2146454;66;1219;-71
2021/07/12 04:31:44;;;;;;;;;;;;;;;;;;2147228;66;1191;-72
2021/07/12 04:34:09;;;;;;;;;;;;;;;;;;2145624;66;1326;-71
2021/07/12 04:36:35;;;;;;;;;;;;;;;;;;2145936;66;1941;-72
2021/07/12 04:39:01;;;;;;;;;;;;;;;;;;2146246;66;1242;-71
2021/07/12 04:41:26;;;;;;;;;;;;;;;;;;2146112;66;1222;-70
2021/07/12 04:43:51;;;;;;;;;;;;;;;;;;2146281;66;1205;-73
2021/07/12 04:46:16;;;;;;;;;;;;;;;;;;2145892;66;1163;-74
2021/07/12 04:48:41;;;;;;;;;;;;;;;;;;2145425;59;1437;-73
2021/07/12 04:51:07;;;;;;;;;;;;;;;;;;2144519;66;1554;-73
2021/07/12 04:53:32;;;;;;;;;;;;;;;;;;2145244;59;2332;-72
2021/07/12 04:55:57;;;;;;;;;;;;;;;;;;2145975;66;1986;-73
2021/07/12 04:58:22;;;;;;;;;;;;;;;;;;2145915;66;1370;-74
2021/07/12 05:00:49;;;;;;;;;;;;;;;;;;2145625;66;1113;-72
2021/07/12 05:03:16;;;;;;;;;;;;;;;;;;2144567;66;1217;-73
2021/07/12 05:05:41;;;;;;;;;;;;;;;;;;2144224;59;1981;-73
2021/07/12 05:08:06;;;;;;;;;;;;;;;;;;2144511;59;1253;-73
2021/07/12 05:10:31;;;;;;;;;;;;;;;;;;2145065;66;1399;-73
2021/07/12 05:12:57;;;;;;;;;;;;;;;;;;2144702;59;1265;-73
2021/07/12 05:15:22;;;;;;;;;;;;;;;;;;2145745;59;1928;-70
2021/07/12 05:17:47;;;;;;;;;;;;;;;;;;2146416;66;1124;-72
2021/07/12 05:20:12;;;;;;;;;;;;;;;;;;2146102;59;1863;-70
2021/07/12 05:22:37;;;;;;;;;;;;;;;;;;2145506;59;1356;-72
2021/07/12 05:25:03;;;;;;;;;;;;;;;;;;2145180;59;2001;-70
2021/07/12 05:27:29;;;;;;;;;;;;;;;;;;2145254;66;1410;-72
2021/07/12 05:29:54;;;;;;;;;;;;;;;;;;2146118;66;1222;-74
2021/07/12 05:32:19;;;;;;;;;;;;;;;;;;2145557;66;1137;-73
2021/07/12 05:34:44;;;;;;;;;;;;;;;;;;2145512;66;1300;-70
2021/07/12 05:37:09;;;;;;;;;;;;;;;;;;2145964;66;1978;-70
2021/07/12 05:39:34;;;;;;;;;;;;;;;;;;2146110;66;1269;-70
2021/07/12 05:42:00;;;;;;;;;;;;;;;;;;2146207;66;1146;-70
2021/07/12 05:44:25;;;;;;;;;;;;;;;;;;2146067;66;1229;-71
2021/07/12 05:46:50;;;;;;;;;;;;;;;;;;2146190;66;1057;-71
2021/07/12 05:49:15;;;;;;;;;;;;;;;;;;2144741;59;1676;-70
2021/07/12 05:51:40;;;;;;;;;;;;;;;;;;2145583;66;1052;-71
2021/07/12 05:54:05;;;;;;;;;;;;;;;;;;2144547;58;2013;-70
2021/07/12 05:56:31;;;;;;;;;;;;;;;;;;2144784;66;1933;-71
2021/07/12 05:58:56;;;;;;;;;;;;;;;;;;2144702;66;1261;-70
2021/07/12 06:01:21;;;;;;;;;;;;;;;;;;2146123;59;1785;-71
2021/07/12 06:03:46;;;;;;;;;;;;;;;;;;2145768;66;1391;-70
2021/07/12 06:06:12;;;;;;;;;;;;;;;;;;2145815;66;1876;-70
2021/07/12 06:08:37;;;;;;;;;;;;;;;;;;2145619;66;1300;-71
2021/07/12 06:11:04;;;;;;;;;;;;;;;;;;2146242;66;1315;-70
2021/07/12 06:13:29;;;;;;;;;;;;;;;;;;2146163;59;1723;-71
2021/07/12 06:15:54;;;;;;;;;;;;;;;;;;2143770;59;2093;-70
2021/07/12 06:18:19;;;;;;;;;;;;;;;;;;2144620;66;1366;-71
2021/07/12 06:20:45;;;;;;;;;;;;;;;;;;2145935;59;1165;-69
2021/07/12 06:23:10;;;;;;;;;;;;;;;;;;2141470;59;2067;-71
2021/07/12 06:25:35;;;;;;;;;;;;;;;;;;2142708;59;2310;-72
2021/07/12 06:28:01;;;;;;;;;;;;;;;;;;2145170;66;1169;-70
2021/07/12 06:30:26;;;;;;;;;;;;;;;;;;2144130;59;1984;-73
2021/07/12 06:32:51;;;;;;;;;;;;;;;;;;2145253;66;1500;-71
2021/07/12 06:35:16;;;;;;;;;;;;;;;;;;2144656;59;1944;-71
2021/07/12 06:37:41;;;;;;;;;;;;;;;;;;2142079;59;1986;-72
2021/07/12 06:40:07;;;;;;;;;;;;;;;;;;2143486;59;1867;-70
2021/07/12 06:42:32;;;;;;;;;;;;;;;;;;2143416;59;2237;-71
2021/07/12 06:44:58;;;;;;;;;;;;;;;;;;2144379;66;1927;-71
2021/07/12 06:47:27;;;;;;;;;;;;;;;;;;2145452;59;1738;-72
2021/07/12 06:49:52;;;;;;;;;;;;;;;;;;2142630;66;1646;-71
2021/07/12 06:52:18;;;;;;;;;;;;;;;;;;2144673;59;2322;-70
2021/07/12 06:54:45;;;;;;;;;;;;;;;;;;2146142;58;1681;-71
2021/07/12 06:57:10;;;;;;;;;;;;;;;;;;2144973;66;1933;-71
2021/07/12 06:59:35;;;;;;;;;;;;;;;;;;2145192;66;1780;-71
2021/07/12 07:02:02;;;;;;;;;;;;;;;;;;2145428;66;1829;-71
2021/07/12 07:04:27;;;;;;;;;;;;;;;;;;2145299;66;1497;-72
2021/07/12 07:06:52;;;;;;;;;;;;;;;;;;2146962;66;1211;-70
2021/07/12 07:09:17;;;;;;;;;;;;;;;;;;2145899;66;1291;-71
2021/07/12 07:11:42;;;;;;;;;;;;;;;;;;2147002;59;1257;-70
2021/07/12 07:14:08;;;;;;;;;;;;;;;;;;2145030;58;1740;-73
2021/07/12 07:16:33;;;;;;;;;;;;;;;;;;2143394;58;2307;-71
2021/07/12 07:18:58;;;;;;;;;;;;;;;;;;2143284;58;1802;-72
2021/07/12 07:21:23;;;;;;;;;;;;;;;;;;2145154;66;1799;-71
2021/07/12 07:23:48;;;;;;;;;;;;;;;;;;2140607;59;2517;-72
2021/07/12 07:26:14;;;;;;;;;;;;;;;;;;2141869;59;2795;-72
2021/07/12 07:28:39;;;;;;;;;;;;;;;;;;2144782;66;2072;-70
2021/07/12 07:31:05;;;;;;;;;;;;;;;;;;2143953;66;1689;-71
2021/07/12 07:33:30;;;;;;;;;;;;;;;;;;2144980;66;1509;-72
2021/07/12 07:35:58;;;;;;;;;;;;;;;;;;2145065;66;1943;-72
2021/07/12 07:38:24;;;;;;;;;;;;;;;;;;2144632;66;2353;-71
2021/07/12 07:40:49;;;;;;;;;;;;;;;;;;2145469;66;2018;-71
2021/07/12 07:43:14;;;;;;;;;;;;;;;;;;2144093;66;1874;-70
2021/07/12 07:45:40;;;;;;;;;;;;;;;;;;2144646;66;1588;-72
2021/07/12 07:48:05;;;;;;;;;;;;;;;;;;2142315;58;2728;-71
2021/07/12 07:50:32;;;;;;;;;;;;;;;;;;2144013;58;1973;-70
2021/07/12 07:52:58;;;;;;;;;;;;;;;;;;2143896;58;2358;-71
2021/07/12 07:55:23;;;;;;;;;;;;;;;;;;2147651;53;2298;-70
2021/07/12 07:57:48;;;;;;;;;;;;;;;;;;2140476;59;1927;-66
2021/07/12 08:00:15;;;;;;;;;;;;;;;;;;2140318;59;1534;-68
2021/07/12 08:02:40;;;;;;;;;;;;;;;;;;2140708;59;1665;-67
2021/07/12 08:05:06;;;;;;;;;;;;;;;;;;2140696;67;2207;-69
2021/07/12 08:07:32;;;;;;;;;;;;;;;;;;2140632;66;1528;-69
2021/07/12 08:09:57;;;;;;;;;;;;;;;;;;2140578;59;2270;-67
2021/07/12 08:12:22;;;;;;;;;;;;;;;;;;2140154;59;2084;-67
2021/07/12 08:14:47;;;;;;;;;;;;;;;;;;2139675;62;1372;-70
2021/07/12 08:17:12;;;;;;;;;;;;;;;;;;2143068;59;1988;-66
2021/07/12 08:19:38;;;;;;;;;;;;;;;;;;2141379;66;1218;-69
2021/07/12 08:22:03;;;;;;;;;;;;;;;;;;2141777;66;1161;-66
2021/07/12 08:24:28;;;;;;;;;;;;;;;;;;2141826;59;1567;-69
2021/07/12 08:26:53;;;;;;;;;;;;;;;;;;2140129;66;1173;-66
2021/07/12 08:29:18;;;;;;;;;;;;;;;;;;2141240;59;1743;-67
2021/07/12 08:31:46;;;;;;;;;;;;;;;;;;2141496;66;1212;-66
2021/07/12 08:34:11;;;;;;;;;;;;;;;;;;2141627;66;1181;-66
2021/07/12 08:36:36;;;;;;;;;;;;;;;;;;2138837;66;1921;-69
2021/07/12 08:39:02;;;;;;;;;;;;;;;;;;2142291;66;1175;-66
2021/07/12 08:41:28;;;;;;;;;;;;;;;;;;2142702;66;1264;-66
2021/07/12 08:43:53;;;;;;;;;;;;;;;;;;2141335;66;1266;-69
2021/07/12 08:46:18;;;;;;;;;;;;;;;;;;2143033;66;1167;-65
2021/07/12 08:48:43;;;;;;;;;;;;;;;;;;2141689;66;1316;-67
2021/07/12 08:51:09;;;;;;;;;;;;;;;;;;2141280;66;1342;-70
2021/07/12 08:53:34;;;;;;;;;;;;;;;;;;2142476;66;1503;-66
2021/07/12 08:55:59;;;;;;;;;;;;;;;;;;2141364;59;1971;-68
2021/07/12 08:58:29;;;;;;;;;;;;;;;;;;2142713;66;1314;-66
2021/07/12 09:01:00;;;;;;;;;;;;;;;;;;2142871;66;1199;-67
2021/07/12 09:03:32;;;;;;;;;;;;;;;;;;2143839;66;1366;-67
2021/07/12 09:06:01;;;;;;;;;;;;;;;;;;2141877;66;1595;-69
2021/07/12 09:08:47;;;;;;;;;;;;;;;;;;2143295;66;1214;-66
2021/07/12 09:11:27;;;;;;;;;;;;;;;;;;2141239;66;1172;-67
2021/07/12 09:13:52;;;;;;;;;;;;;;;;;;2142652;66;1231;-69
2021/07/12 09:16:33;;;;;;;;;;;;;;;;;;2141163;59;1912;-69
2021/07/12 09:19:07;;;;;;;;;;;;;;;;;;2143121;66;1226;-68
2021/07/12 09:21:33;;;;;;;;;;;;;;;;;;2141473;66;1237;-69
2021/07/12 09:24:16;;;;;;;;;;;;;;;;;;2143377;59;1439;-69
2021/07/12 09:26:42;;;;;;;;;;;;;;;;;;2142961;66;1167;-66
2021/07/12 09:29:13;;;;;;;;;;;;;;;;;;2142612;59;1169;-66
2021/07/12 09:31:38;;;;;;;;;;;;;;;;;;2143377;66;1853;-67
2021/07/12 09:34:03;;;;;;;;;;;;;;;;;;2142052;66;1268;-67
2021/07/12 09:36:31;;;;;;;;;;;;;;;;;;2142283;67;1927;-70
2021/07/12 09:38:57;;;;;;;;;;;;;;;;;;2142934;67;1239;-69
2021/07/12 09:41:29;;;;;;;;;;;;;;;;;;2142025;67;1076;-70
2021/07/12 09:44:01;;;;;;;;;;;;;;;;;;2142735;66;1320;-70
2021/07/12 09:46:30;;;;;;;;;;;;;;;;;;2141855;67;1179;-67
2021/07/12 09:49:11;;;;;;;;;;;;;;;;;;2142626;59;1447;-70
2021/07/12 09:51:38;;;;;;;;;;;;;;;;;;2143591;67;1195;-68
2021/07/12 09:54:15;;;;;;;;;;;;;;;;;;2142905;59;1263;-68
2021/07/12 09:56:40;;;;;;;;;;;;;;;;;;2141169;67;1980;-67
2021/07/12 09:59:06;;;;;;;;;;;;;;;;;;2143193;67;1505;-67
2021/07/12 10:01:31;;;;;;;;;;;;;;;;;;2142313;66;1291;-69
2021/07/12 10:03:57;;;;;;;;;;;;;;;;;;2143128;66;1231;-67
2021/07/12 10:06:22;;;;;;;;;;;;;;;;;;2142858;66;1341;-67
2021/07/12 10:08:48;;;;;;;;;;;;;;;;;;2142714;66;1239;-68
2021/07/12 10:11:13;;;;;;;;;;;;;;;;;;2142880;66;1171;-67
2021/07/12 10:13:38;;;;;;;;;;;;;;;;;;2143205;59;1601;-67
2021/07/12 10:16:04;;;;;;;;;;;;;;;;;;2143621;59;2081;-66
2021/07/12 10:18:29;;;;;;;;;;;;;;;;;;2142779;66;1240;-67
2021/07/12 10:20:54;;;;;;;;;;;;;;;;;;2143077;66;1178;-69
2021/07/12 10:23:20;;;;;;;;;;;;;;;;;;2142439;59;1349;-67
2021/07/12 10:25:46;;;;;;;;;;;;;;;;;;2143242;66;1242;-68
2021/07/12 10:28:12;;;;;;;;;;;;;;;;;;2141595;66;1168;-66
2021/07/12 10:30:45;;;;;;;;;;;;;;;;;;2143700;66;1159;-67
2021/07/12 10:33:11;;;;;;;;;;;;;;;;;;2141649;66;1312;-68
2021/07/12 10:35:40;;;;;;;;;;;;;;;;;;2142983;66;1957;-68
2021/07/12 10:38:05;;;;;;;;;;;;;;;;;;2143233;66;1174;-67
2021/07/12 10:40:44;;;;;;;;;;;;;;;;;;2142972;66;1155;-68
2021/07/12 10:43:10;;;;;;;;;;;;;;;;;;2141604;66;1207;-66
2021/07/12 10:45:36;;;;;;;;;;;;;;;;;;2143442;66;1237;-66
2021/07/12 10:48:04;;;;;;;;;;;;;;;;;;2140801;59;1268;-67
2021/07/12 10:50:38;;;;;;;;;;;;;;;;;;2143107;66;1429;-67
2021/07/12 10:53:03;;;;;;;;;;;;;;;;;;2143705;66;1109;-66
2021/07/12 10:55:29;;;;;;;;;;;;;;;;;;2140198;59;2198;-66
2021/07/12 10:58:13;;;;;;;;;;;;;;;;;;2143219;66;1901;-66
2021/07/12 11:00:38;;;;;;;;;;;;;;;;;;2141987;66;1035;-65
2021/07/12 11:03:03;;;;;;;;;;;;;;;;;;2142240;66;1232;-69
2021/07/12 11:05:48;;;;;;;;;;;;;;;;;;2142742;66;1769;-66
2021/07/12 11:08:33;;;;;;;;;;;;;;;;;;2142515;66;1136;-70
2021/07/12 11:10:58;;;;;;;;;;;;;;;;;;2142904;66;1336;-66
2021/07/12 11:13:44;;;;;;;;;;;;;;;;;;2141565;59;1532;-68
2021/07/12 11:16:16;;;;;;;;;;;;;;;;;;2144069;59;1919;-67
2021/07/12 11:18:41;;;;;;;;;;;;;;;;;;2142460;66;1161;-67
2021/07/12 11:21:09;;;;;;;;;;;;;;;;;;2142835;66;1214;-66
2021/07/12 11:23:34;;;;;;;;;;;;;;;;;;2142518;59;1362;-68
2021/07/12 11:25:59;;;;;;;;;;;;;;;;;;2141831;66;1295;-66
2021/07/12 11:28:40;;;;;;;;;;;;;;;;;;2142007;66;1182;-68
2021/07/12 11:31:25;;;;;;;;;;;;;;;;;;2142632;59;1045;-66
2021/07/12 11:33:50;;;;;;;;;;;;;;;;;;2141999;66;1386;-68
2021/07/12 11:36:15;;;;;;;;;;;;;;;;;;2142946;66;1929;-67
2021/07/12 11:38:41;;;;;;;;;;;;;;;;;;2142208;66;1312;-67
2021/07/12 11:41:06;;;;;;;;;;;;;;;;;;2143008;66;1188;-66
2021/07/12 11:43:31;;;;;;;;;;;;;;;;;;2142418;66;1219;-67
2021/07/12 11:45:58;;;;;;;;;;;;;;;;;;2142813;59;1273;-66
2021/07/12 11:48:24;;;;;;;;;;;;;;;;;;2142284;59;1314;-67
2021/07/12 11:50:49;;;;;;;;;;;;;;;;;;2142650;66;1402;-68
2021/07/12 11:53:15;;;;;;;;;;;;;;;;;;2142613;66;1203;-66
2021/07/12 11:55:40;;;;;;;;;;;;;;;;;;2142948;59;1916;-67
2021/07/12 11:58:06;;;;;;;;;;;;;;;;;;2142272;66;1152;-69
2021/07/12 12:00:34;;;;;;;;;;;;;;;;;;2142498;66;1145;-66
2021/07/12 12:03:00;;;;;;;;;;;;;;;;;;2143781;66;1144;-67
2021/07/12 12:05:27;;;;;;;;;;;;;;;;;;2143395;66;1238;-67
2021/07/12 12:07:57;;;;;;;;;;;;;;;;;;2143088;66;1160;-67
2021/07/12 12:10:23;;;;;;;;;;;;;;;;;;2143630;66;1125;-68
2021/07/12 12:12:54;;;;;;;;;;;;;;;;;;2143525;66;1337;-66
2021/07/12 12:15:24;;;;;;;;;;;;;;;;;;2142997;59;1306;-67
2021/07/12 12:17:49;;;;;;;;;;;;;;;;;;2143422;66;1989;-66
2021/07/12 12:20:14;;;;;;;;;;;;;;;;;;2142980;59;1152;-68
2021/07/12 12:22:58;;;;;;;;;;;;;;;;;;2142893;59;1414;-66
2021/07/12 12:25:23;;;;;;;;;;;;;;;;;;2143012;66;1229;-67
2021/07/12 12:27:49;;;;;;;;;;;;;;;;;;2143552;66;1151;-67
2021/07/12 12:30:14;;;;;;;;;;;;;;;;;;2141545;66;1470;-68
2021/07/12 12:32:40;;;;;;;;;;;;;;;;;;2143646;66;1054;-66
2021/07/12 12:35:06;;;;;;;;;;;;;;;;;;2142996;66;1212;-67
2021/07/12 12:37:32;;;;;;;;;;;;;;;;;;2142594;66;1943;-68
2021/07/12 12:40:26;;;;;;;;;;;;;;;;;;2142753;66;1178;-66
2021/07/12 12:42:53;;;;;;;;;;;;;;;;;;2141264;66;1592;-69
2021/07/12 12:45:25;;;;;;;;;;;;;;;;;;2142786;66;1223;-66
2021/07/12 12:47:51;;;;;;;;;;;;;;;;;;2142480;59;1300;-66
2021/07/12 12:50:17;;;;;;;;;;;;;;;;;;2141576;66;1430;-67
2021/07/12 12:52:42;;;;;;;;;;;;;;;;;;2142789;66;1218;-66
2021/07/12 12:55:11;;;;;;;;;;;;;;;;;;2142571;59;1210;-67
2021/07/12 12:57:42;;;;;;;;;;;;;;;;;;2141304;66;1993;-66
2021/07/12 13:00:07;;;;;;;;;;;;;;;;;;2141835;66;1165;-66
2021/07/12 13:02:36;;;;;;;;;;;;;;;;;;2143349;66;1303;-66
2021/07/12 13:05:06;;;;;;;;;;;;;;;;;;2141556;66;1293;-67
2021/07/12 13:07:32;;;;;;;;;;;;;;;;;;2143259;66;1242;-68
2021/07/12 13:10:01;;;;;;;;;;;;;;;;;;2142279;66;1211;-67
2021/07/12 13:12:36;;;;;;;;;;;;;;;;;;2142849;66;1314;-67
2021/07/12 13:15:02;;;;;;;;;;;;;;;;;;2138300;59;1278;-66
2021/07/12 13:17:27;;;;;;;;;;;;;;;;;;2142665;66;1921;-67
2021/07/12 13:19:53;;;;;;;;;;;;;;;;;;2142387;66;1159;-66
2021/07/12 13:22:28;;;;;;;;;;;;;;;;;;2142457;66;1464;-66
2021/07/12 13:24:55;;;;;;;;;;;;;;;;;;2142263;66;1234;-67
2021/07/12 13:27:35;;;;;;;;;;;;;;;;;;2142702;66;1110;-66
2021/07/12 13:30:03;;;;;;;;;;;;;;;;;;2141982;66;1258;-69
2021/07/12 13:32:28;;;;;;;;;;;;;;;;;;2143087;66;1163;-66
2021/07/12 13:34:58;;;;;;;;;;;;;;;;;;2143706;66;1254;-69
2021/07/12 13:37:24;;;;;;;;;;;;;;;;;;2142983;66;1919;-67
2021/07/12 13:39:49;;;;;;;;;;;;;;;;;;2138096;59;2267;-69
2021/07/12 13:42:14;;;;;;;;;;;;;;;;;;2138164;59;2259;-69
2021/07/12 13:44:40;;;;;;;;;;;;;;;;;;2138653;59;1931;-66
2021/07/12 13:47:05;;;;;;;;;;;;;;;;;;2139738;59;2015;-69
2021/07/12 13:49:30;;;;;;;;;;;;;;;;;;2139849;59;2236;-68
2021/07/12 13:51:56;;;;;;;;;;;;;;;;;;2141183;67;1597;-67
2021/07/12 13:54:21;;;;;;;;;;;;;;;;;;2139497;59;2232;-67
2021/07/12 13:56:46;;;;;;;;;;;;;;;;;;2139861;59;1991;-67
2021/07/12 13:59:11;;;;;;;;;;;;;;;;;;2140207;59;1136;-69
2021/07/12 14:01:36;;;;;;;;;;;;;;;;;;2140540;67;1176;-68
2021/07/12 14:04:02;;;;;;;;;;;;;;;;;;2141260;59;1236;-69
2021/07/12 14:06:27;;;;;;;;;;;;;;;;;;2139595;59;2022;-67
2021/07/12 14:08:54;;;;;;;;;;;;;;;;;;2139956;59;1832;-66
2021/07/12 14:11:19;;;;;;;;;;;;;;;;;;2139904;59;1614;-68
2021/07/12 14:13:44;;;;;;;;;;;;;;;;;;2140966;59;1734;-69
2021/07/12 14:16:09;;;;;;;;;;;;;;;;;;2142288;59;1986;-66
2021/07/12 14:18:34;;;;;;;;;;;;;;;;;;2142481;67;1175;-66
2021/07/12 14:21:00;;;;;;;;;;;;;;;;;;2142341;67;1175;-66
2021/07/12 14:23:25;;;;;;;;;;;;;;;;;;2142528;59;1444;-66
2021/07/12 14:25:51;;;;;;;;;;;;;;;;;;2140658;67;1305;-66
2021/07/12 14:28:16;;;;;;;;;;;;;;;;;;2142519;67;1093;-65
2021/07/12 14:30:41;;;;;;;;;;;;;;;;;;2140022;59;1790;-65
2021/07/12 14:33:07;;;;;;;;;;;;;;;;;;2140498;67;1028;-67
2021/07/12 14:35:32;;;;;;;;;;;;;;;;;;2140470;60;1321;-67
2021/07/12 14:37:58;;;;;;;;;;;;;;;;;;2142394;67;1974;-67
2021/07/12 14:40:23;;;;;;;;;;;;;;;;;;2139366;67;1943;-69
2021/07/12 14:42:54;;;;;;;;;;;;;;;;;;2140885;67;1434;-66
2021/07/12 14:45:19;;;;;;;;;;;;;;;;;;2140561;67;1528;-66
2021/07/12 14:47:44;;;;;;;;;;;;;;;;;;2138469;59;1418;-65
2021/07/12 14:50:10;;;;;;;;;;;;;;;;;;2143210;66;1529;-68
2021/07/12 14:52:35;;;;;;;;;;;;;;;;;;2141204;59;1974;-67
2021/07/12 14:55:00;;;;;;;;;;;;;;;;;;2142662;59;1873;-68
2021/07/12 14:57:25;;;;;;;;;;;;;;;;;;2140980;59;1935;-68
2021/07/12 14:59:50;;;;;;;;;;;;;;;;;;2141689;59;2043;-67
2021/07/12 15:02:16;;;;;;;;;;;;;;;;;;2140207;59;1841;-69
2021/07/12 15:04:41;;;;;;;;;;;;;;;;;;2137978;59;2316;-67
2021/07/12 15:07:06;;;;;;;;;;;;;;;;;;2136332;59;2305;-69
2021/07/12 15:09:31;;;;;;;;;;;;;;;;;;2142360;66;1560;-69
2021/07/12 15:11:56;;;;;;;;;;;;;;;;;;2140434;59;2010;-67
2021/07/12 15:14:22;;;;;;;;;;;;;;;;;;2137926;59;2328;-68
2021/07/12 15:16:47;;;;;;;;;;;;;;;;;;2140000;59;1981;-66
2021/07/12 15:19:12;;;;;;;;;;;;;;;;;;2141506;59;2110;-66
2021/07/12 15:21:37;;;;;;;;;;;;;;;;;;2141683;66;1550;-67
2021/07/12 15:24:03;;;;;;;;;;;;;;;;;;2142824;66;1657;-68
2021/07/12 15:26:28;;;;;;;;;;;;;;;;;;2142934;66;1250;-67
2021/07/12 15:28:53;;;;;;;;;;;;;;;;;;2142549;66;1089;-68
2021/07/12 15:31:18;;;;;;;;;;;;;;;;;;2142773;59;1372;-68
2021/07/12 15:33:43;;;;;;;;;;;;;;;;;;2141812;66;1128;-67
2021/07/12 15:36:08;;;;;;;;;;;;;;;;;;2143179;66;1947;-68
2021/07/12 15:38:36;;;;;;;;;;;;;;;;;;2142917;66;1156;-68
2021/07/12 15:41:02;;;;;;;;;;;;;;;;;;2143089;66;1257;-69
2021/07/12 15:43:27;;;;;;;;;;;;;;;;;;2141971;59;1909;-68
2021/07/12 15:45:54;;;;;;;;;;;;;;;;;;2140859;59;1792;-67
2021/07/12 15:48:19;;;;;;;;;;;;;;;;;;2141138;67;1303;-67
2021/07/12 15:50:45;;;;;;;;;;;;;;;;;;2142042;66;1316;-67
2021/07/12 15:53:11;;;;;;;;;;;;;;;;;;2141531;59;2236;-66
2021/07/12 15:55:36;;;;;;;;;;;;;;;;;;2142025;59;1651;-68
2021/07/12 15:58:04;;;;;;;;;;;;;;;;;;2140760;59;2315;-68
2021/07/12 16:00:29;;;;;;;;;;;;;;;;;;2142015;66;1407;-68
2021/07/12 16:02:54;;;;;;;;;;;;;;;;;;2141489;66;1417;-67
2021/07/12 16:05:20;;;;;;;;;;;;;;;;;;2142928;66;1410;-68
2021/07/12 16:07:45;;;;;;;;;;;;;;;;;;2140808;59;1602;-67
2021/07/12 16:10:11;;;;;;;;;;;;;;;;;;2142125;66;1500;-67
2021/07/12 16:12:36;;;;;;;;;;;;;;;;;;2142307;66;1353;-68
2021/07/12 16:15:02;;;;;;;;;;;;;;;;;;2142561;59;1284;-67
2021/07/12 16:17:27;;;;;;;;;;;;;;;;;;2142550;66;1985;-67
2021/07/12 16:19:53;;;;;;;;;;;;;;;;;;2142779;66;1207;-68
2021/07/12 16:22:18;;;;;;;;;;;;;;;;;;2142306;59;1428;-68
2021/07/12 16:24:44;;;;;;;;;;;;;;;;;;2142539;59;1234;-66
2021/07/12 16:27:09;;;;;;;;;;;;;;;;;;2142760;66;1375;-68
2021/07/12 16:29:35;;;;;;;;;;;;;;;;;;2142718;66;1262;-67
2021/07/12 16:32:00;;;;;;;;;;;;;;;;;;2142967;66;1123;-67
2021/07/12 16:34:25;;;;;;;;;;;;;;;;;;2142316;66;1224;-67
2021/07/12 16:36:51;;;;;;;;;;;;;;;;;;2143067;66;1953;-68
2021/07/12 16:39:16;;;;;;;;;;;;;;;;;;2140157;66;2333;-67
2021/07/12 16:41:41;;;;;;;;;;;;;;;;;;2141938;66;1527;-69
2021/07/12 16:44:07;;;;;;;;;;;;;;;;;;2137673;66;1253;-67
2021/07/12 16:46:33;;;;;;;;;;;;;;;;;;2142182;66;1645;-67
2021/07/12 16:48:58;;;;;;;;;;;;;;;;;;2140897;59;2264;-67
2021/07/12 16:51:24;;;;;;;;;;;;;;;;;;2140689;59;1884;-67
2021/07/12 16:53:49;;;;;;;;;;;;;;;;;;2140339;59;1832;-67
2021/07/12 16:56:14;;;;;;;;;;;;;;;;;;2139299;59;2116;-67
2021/07/12 16:58:39;;;;;;;;;;;;;;;;;;2140888;59;1840;-68
2021/07/12 17:01:05;;;;;;;;;;;;;;;;;;2141429;66;1253;-67